Time;durP1;ratioP1;P1;durP2;ratioP2;P2;SDS_P1;SDS_P2;PMS_P1;PMS_P2;Temp;Humidity;BMP_temperature;BMP_pressure;BME280_temperature;BME280_humidity;BME280_pressure;Samples;Min_cycle;Max_cycle;Signal;HPM_P1;HPM_P2
2021/12/04 00:02:59;;;;;;;2.87;2.70;;;6.60;96.10;;;;;;10364023;28;20206;-81
2021/12/04 00:08:01;;;;;;;2.93;2.73;;;6.60;94.50;;;;;;10380958;28;20252;-81
2021/12/04 00:13:05;;;;;;;2.80;2.60;;;6.60;95.30;;;;;;10381516;28;20223;-81
2021/12/04 00:18:10;;;;;;;3.37;3.10;;;6.60;94.60;;;;;;10381170;28;20245;-80
2021/12/04 00:23:12;;;;;;;3.37;3.17;;;6.60;96.20;;;;;;10374981;28;20202;-81
2021/12/04 00:28:15;;;;;;;4.17;3.00;;;6.60;96.00;;;;;;10371101;28;20229;-81
2021/12/04 00:33:20;;;;;;;2.93;2.83;;;6.70;94.90;;;;;;10373384;28;20264;-81
2021/12/04 00:49:10;;;;;;;3.20;3.00;;;6.70;96.90;;;;;;10371216;28;20222;-80
2021/12/04 00:54:13;;;;;;;3.57;3.20;;;6.80;96.60;;;;;;10368534;28;20207;-81
2021/12/04 00:59:18;;;;;;;3.40;3.20;;;6.80;96.00;;;;;;10347191;28;20218;-81
2021/12/04 01:04:21;;;;;;;2.87;2.77;;;6.80;96.10;;;;;;10348271;28;20199;-81
2021/12/04 01:09:26;;;;;;;3.33;3.10;;;6.80;96.60;;;;;;10373301;28;20226;-80
2021/12/04 01:14:31;;;;;;;3.30;3.10;;;6.80;96.80;;;;;;10357358;28;20215;-80
2021/12/04 01:19:36;;;;;;;3.27;3.07;;;6.80;96.70;;;;;;10363856;28;20265;-82
2021/12/04 01:24:38;;;;;;;3.40;3.20;;;6.80;96.50;;;;;;10361239;28;20191;-82
2021/12/04 01:29:45;;;;;;;3.63;3.40;;;6.80;97.10;;;;;;10379837;28;20252;-82
2021/12/04 01:34:47;;;;;;;6.60;3.53;;;6.70;99.30;;;;;;10386781;28;20250;-83
2021/12/04 01:39:49;;;;;;;4.20;3.80;;;6.60;99.90;;;;;;10366941;28;20701;-82
2021/12/04 01:44:53;;;;;;;4.30;3.90;;;6.50;99.90;;;;;;10373062;28;20670;-83
2021/12/04 01:49:55;;;;;;;5.23;4.73;;;6.40;99.90;;;;;;10349118;28;20323;-81
2021/12/04 01:54:59;;;;;;;5.60;5.20;;;6.20;99.90;;;;;;10365883;28;20223;-81
2021/12/04 02:00:05;;;;;;;6.80;6.40;;;6.10;99.90;;;;;;10328478;28;20227;-81
2021/12/04 02:05:14;;;;;;;7.50;6.90;;;5.90;99.90;;;;;;10366659;28;20194;-80
2021/12/04 02:10:16;;;;;;;7.53;7.13;;;5.90;99.90;;;;;;10339210;28;20602;-81
2021/12/04 02:15:20;;;;;;;7.80;7.40;;;5.90;99.90;;;;;;10366498;28;20245;-80
2021/12/04 02:20:27;;;;;;;8.00;7.60;;;5.80;99.90;;;;;;10358441;28;20222;-80
2021/12/04 02:25:30;;;;;;;7.00;6.70;;;5.80;99.90;;;;;;10366234;28;20202;-80
2021/12/04 02:30:35;;;;;;;7.17;6.77;;;5.70;99.90;;;;;;10358890;28;20229;-80
2021/12/04 02:35:40;;;;;;;7.50;7.00;;;5.70;99.90;;;;;;10353370;28;20301;-80
2021/12/04 02:40:44;;;;;;;7.90;7.40;;;5.70;99.90;;;;;;10325735;28;20235;-80
2021/12/04 02:45:46;;;;;;;7.60;7.10;;;5.60;99.90;;;;;;10361844;28;20564;-81
2021/12/04 02:50:49;;;;;;;8.53;7.93;;;5.50;99.90;;;;;;10377481;28;20222;-80
2021/12/04 02:55:53;;;;;;;8.87;8.27;;;5.50;99.90;;;;;;10360384;28;20206;-81
2021/12/04 03:00:55;;;;;;;8.77;8.17;;;5.50;99.90;;;;;;10370793;28;20353;-80
2021/12/04 03:05:58;;;;;;;10.20;9.30;;;5.40;99.90;;;;;;10363820;28;20199;-79
2021/12/04 03:11:00;;;;;;;10.70;9.70;;;5.40;99.90;;;;;;10374950;28;20733;-80
2021/12/04 03:16:02;;;;;;;9.83;8.93;;;5.40;99.90;;;;;;10326965;28;20214;-81
2021/12/04 03:21:06;;;;;;;10.43;9.63;;;5.40;99.90;;;;;;10348607;28;20223;-80
2021/12/04 03:26:10;;;;;;;11.07;10.17;;;5.40;99.90;;;;;;10357542;28;20285;-80
2021/12/04 03:31:18;;;;;;;10.37;9.67;;;5.30;99.90;;;;;;10352919;28;20215;-80
2021/12/04 03:41:41;;;;;;;9.73;8.93;;;5.40;99.90;;;;;;10371359;28;20205;-80
2021/12/04 03:46:45;;;;;;;10.80;10.00;;;5.50;99.90;;;;;;10379051;28;20198;-80
2021/12/04 03:51:48;;;;;;;10.13;9.33;;;5.40;99.90;;;;;;10345072;28;20223;-81
2021/12/04 03:57:00;;;;;;;9.73;9.10;;;5.50;99.90;;;;;;10374648;28;20242;-80
2021/12/04 04:02:04;;;;;;;9.37;8.73;;;5.50;99.90;;;;;;10354603;28;20254;-80
2021/12/04 04:07:08;;;;;;;9.10;8.40;;;5.50;99.90;;;;;;10373922;28;20325;-80
2021/12/04 04:12:10;;;;;;;10.00;9.30;;;5.60;99.90;;;;;;10389399;28;20210;-80
2021/12/04 04:17:12;;;;;;;11.30;10.40;;;5.60;99.90;;;;;;10384012;28;20669;-80
2021/12/04 04:22:16;;;;;;;12.83;11.53;;;5.70;99.90;;;;;;10367634;28;20632;-80
2021/12/04 04:27:18;;;;;;;11.60;10.60;;;5.80;99.90;;;;;;10341899;28;20238;-80
2021/12/04 04:32:20;;;;;;;11.40;10.43;;;5.90;99.90;;;;;;10351683;28;20210;-81
2021/12/04 04:37:30;;;;;;;10.63;9.70;;;5.90;99.90;;;;;;10369796;28;20321;-81
2021/12/04 04:58:49;;;;;;;10.90;10.20;;;6.00;99.90;;;;;;10341628;28;20249;-81
2021/12/04 05:14:32;;;;;;;9.13;8.43;;;5.90;99.90;;;;;;10369041;28;20218;-81
2021/12/04 05:19:41;;;;;;;9.27;8.67;;;6.00;99.90;;;;;;10369037;28;20253;-82
2021/12/04 05:24:44;;;;;;;10.40;8.67;;;5.90;99.90;;;;;;10370371;28;20195;-82
2021/12/04 05:29:46;;;;;;;9.83;9.03;;;6.00;99.90;;;;;;10338352;28;20322;-81
2021/12/04 05:34:48;;;;;;;10.13;9.23;;;5.90;99.90;;;;;;10343208;28;20233;-80
2021/12/04 05:39:52;;;;;;;8.90;8.30;;;5.90;99.90;;;;;;10328836;28;20326;-81
2021/12/04 05:44:54;;;;;;;8.83;8.10;;;5.90;99.90;;;;;;10349906;28;20194;-81
2021/12/04 05:50:00;;;;;;;8.63;7.83;;;5.80;99.90;;;;;;10368581;28;20226;-80
2021/12/04 05:55:14;;;;;;;8.63;8.03;;;5.80;99.90;;;;;;10370004;28;20218;-83
2021/12/04 06:00:20;;;;;;;8.37;7.77;;;5.80;99.90;;;;;;10363803;28;20234;-82
2021/12/04 06:05:23;;;;;;;10.60;9.63;;;5.90;99.90;;;;;;10374996;28;20206;-81
2021/12/04 06:10:26;;;;;;;10.17;9.27;;;6.00;99.90;;;;;;10337187;28;20227;-81
2021/12/04 06:15:28;;;;;;;9.90;9.10;;;6.10;99.90;;;;;;10357241;28;20242;-82
2021/12/04 06:25:51;;;;;;;9.23;8.40;;;6.20;99.90;;;;;;10352989;28;20195;-81
2021/12/04 06:30:54;;;;;;;9.20;8.40;;;6.20;99.90;;;;;;10349921;28;20317;-82
2021/12/04 06:35:57;;;;;;;6.90;6.40;;;6.00;99.90;;;;;;10378993;28;20313;-82
2021/12/04 06:41:00;;;;;;;5.27;4.97;;;6.00;99.90;;;;;;10348656;28;20775;-82
2021/12/04 06:46:04;;;;;;;4.00;3.80;;;6.10;99.90;;;;;;10368454;28;20294;-81
2021/12/04 06:51:14;;;;;;;4.17;3.97;;;6.10;99.90;;;;;;10330846;28;20227;-81
2021/12/04 06:56:19;;;;;;;3.70;3.50;;;6.20;99.90;;;;;;10328128;28;20552;-83
2021/12/04 07:01:21;;;;;;;3.70;3.60;;;6.30;99.90;;;;;;10365254;28;20604;-83
2021/12/04 07:06:23;;;;;;;6.70;6.30;;;6.40;99.90;;;;;;10361616;28;20214;-84
2021/12/04 07:11:27;;;;;;;7.73;7.13;;;6.60;99.90;;;;;;10412244;28;20226;-82
2021/12/04 07:16:29;;;;;;;6.97;6.40;;;6.60;99.90;;;;;;10365943;28;20293;-80
2021/12/04 07:21:31;;;;;;;8.53;7.83;;;6.70;99.90;;;;;;10334584;28;20199;-79
2021/12/04 07:26:35;;;;;;;8.00;7.30;;;6.70;99.90;;;;;;10351419;28;20225;-80
2021/12/04 07:31:38;;;;;;;7.23;6.63;;;6.80;99.90;;;;;;10376463;28;20211;-80
2021/12/04 07:36:40;;;;;;;3.50;3.30;;;6.80;99.90;;;;;;10367604;28;20662;-80
2021/12/04 07:41:47;;;;;;;3.70;3.50;;;6.90;99.90;;;;;;10367124;28;20683;-82
2021/12/04 07:46:49;;;;;;;5.93;5.63;;;6.90;99.90;;;;;;10353167;28;20227;-81
2021/12/04 07:51:51;;;;;;;7.43;6.80;;;7.00;99.90;;;;;;10349705;28;20211;-82
2021/12/04 07:56:55;;;;;;;7.30;6.70;;;7.00;99.90;;;;;;10347591;28;20234;-80
2021/12/04 08:01:57;;;;;;;6.50;6.00;;;7.00;99.90;;;;;;10354428;28;20206;-81
2021/12/04 08:07:00;;;;;;;6.73;6.23;;;7.10;99.90;;;;;;10358089;28;20223;-80
2021/12/04 08:12:04;;;;;;;6.47;5.97;;;7.10;99.90;;;;;;10380068;28;20237;-80
2021/12/04 08:17:06;;;;;;;5.03;4.80;;;7.10;99.90;;;;;;10359960;28;20231;-79
2021/12/04 08:22:08;;;;;;;4.47;4.17;;;7.20;99.90;;;;;;10347890;28;20229;-80
2021/12/04 08:27:12;;;;;;;4.80;4.60;;;7.20;99.90;;;;;;10356322;28;20219;-80
2021/12/04 08:32:14;;;;;;;3.93;3.73;;;7.30;99.90;;;;;;10369766;28;20297;-80
2021/12/04 08:37:17;;;;;;;3.20;2.40;;;7.40;99.90;;;;;;10396378;23;20252;-82
2021/12/04 08:42:21;;;;;;;3.87;3.77;;;7.40;99.90;;;;;;10412388;28;20310;-84
2021/12/04 08:47:24;;;;;;;3.23;3.03;;;7.50;99.90;;;;;;10402537;28;20260;-83
2021/12/04 08:52:26;;;;;;;3.90;3.80;;;7.60;99.90;;;;;;10381717;28;20291;-83
2021/12/04 08:57:30;;;;;;;3.03;2.93;;;7.70;99.90;;;;;;10397632;28;20236;-83
2021/12/04 09:02:37;;;;;;;4.30;4.20;;;7.70;99.90;;;;;;10404812;28;20194;-83
2021/12/04 09:07:40;;;;;;;3.90;3.20;;;7.80;99.90;;;;;;10383957;28;20237;-84
2021/12/04 09:12:44;;;;;;;3.73;3.53;;;7.90;99.90;;;;;;10415888;28;20217;-84
2021/12/04 09:17:46;;;;;;;3.30;3.10;;;7.90;99.90;;;;;;10401790;28;20229;-83
2021/12/04 09:22:49;;;;;;;3.50;3.40;;;7.90;99.90;;;;;;10389447;28;20194;-83
2021/12/04 09:34:03;;;;;;;2.60;2.50;;;8.10;99.90;;;;;;10411602;28;20221;-84
2021/12/04 10:00:42;;;;;;;2.30;2.20;;;8.30;99.90;;;;;;10377624;28;20244;-83
2021/12/04 10:06:10;;;;;;;2.53;2.20;;;8.40;99.90;;;;;;10405435;28;20204;-83
2021/12/04 10:22:31;;;;;;;1.97;1.87;;;8.60;99.90;;;;;;10354562;28;20202;-82
2021/12/04 10:32:55;;;;;;;1.70;1.60;;;8.90;99.90;;;;;;10349101;28;20286;-83
2021/12/04 10:38:03;;;;;;;2.03;1.93;;;9.00;99.90;;;;;;10375106;28;20257;-83
2021/12/04 10:43:07;;;;;;;2.03;1.93;;;9.10;99.90;;;;;;10391542;28;20292;-81
2021/12/04 10:48:16;;;;;;;1.80;1.70;;;9.10;99.90;;;;;;10422303;28;20595;-82
2021/12/04 10:53:22;;;;;;;1.70;1.70;;;9.30;99.90;;;;;;10398774;28;20257;-82
2021/12/04 11:04:02;;;;;;;1.80;1.70;;;9.50;99.90;;;;;;10410808;28;20190;-82
2021/12/04 11:36:26;;;;;;;3.63;1.70;;;10.10;99.90;;;;;;10401920;28;20227;-81
2021/12/04 11:41:33;;;;;;;1.80;1.70;;;10.20;99.90;;;;;;10386067;28;20237;-81
2021/12/04 11:46:44;;;;;;;1.60;1.50;;;10.30;99.90;;;;;;10424790;28;20202;-82
2021/12/04 11:51:58;;;;;;;1.93;1.83;;;10.30;99.90;;;;;;10410838;28;20217;-82
2021/12/04 11:57:04;;;;;;;1.60;1.50;;;10.40;99.90;;;;;;10394120;28;20226;-82
2021/12/04 12:02:09;;;;;;;1.40;1.40;;;10.40;99.90;;;;;;10389359;28;20248;-81
2021/12/04 12:07:15;;;;;;;1.07;1.07;;;10.40;99.90;;;;;;10405222;28;20224;-82
2021/12/04 12:12:36;;;;;;;1.53;1.50;;;10.50;99.90;;;;;;10394074;28;20284;-82
2021/12/04 12:17:41;;;;;;;1.57;1.57;;;10.50;99.90;;;;;;10400396;28;20221;-82
2021/12/04 12:22:51;;;;;;;1.40;1.40;;;10.60;99.90;;;;;;10391713;28;20289;-82
2021/12/04 12:33:26;;;;;;;1.33;1.23;;;10.60;99.90;;;;;;10388248;28;20701;-82
2021/12/04 12:38:47;;;;;;;1.13;1.00;;;10.60;99.90;;;;;;10414138;28;20237;-82
2021/12/04 12:43:54;;;;;;;1.23;1.23;;;10.60;99.90;;;;;;10407012;28;20247;-82
2021/12/04 12:48:56;;;;;;;1.40;1.33;;;10.60;99.90;;;;;;10390402;28;20240;-82
2021/12/04 12:54:03;;;;;;;1.20;1.20;;;10.70;99.90;;;;;;10389578;28;20229;-82
2021/12/04 12:59:09;;;;;;;1.50;1.40;;;10.70;99.90;;;;;;10423727;28;20237;-82
2021/12/04 13:14:54;;;;;;;1.30;1.30;;;10.70;99.90;;;;;;10334683;28;20316;-81
2021/12/04 13:19:57;;;;;;;1.87;1.77;;;10.60;99.90;;;;;;10400336;28;20230;-82
2021/12/04 13:25:06;;;;;;;0.90;0.90;;;10.60;99.90;;;;;;10409195;28;20709;-82
2021/12/04 13:30:12;;;;;;;0.90;0.90;;;10.50;99.90;;;;;;10389535;28;20289;-82
2021/12/04 13:35:17;;;;;;;2.10;1.43;;;10.50;99.90;;;;;;10408833;28;20725;-81
2021/12/04 13:40:22;;;;;;;1.30;1.20;;;10.50;99.90;;;;;;10378714;28;20238;-82
2021/12/04 13:45:24;;;;;;;1.73;1.37;;;10.40;99.90;;;;;;10393887;28;20277;-82
2021/12/04 13:50:45;;;;;;;1.30;1.20;;;10.40;99.90;;;;;;10391193;28;20233;-81
2021/12/04 13:55:54;;;;;;;3.13;1.80;;;10.40;99.90;;;;;;10391029;28;20275;-82
2021/12/04 14:00:57;;;;;;;1.23;1.10;;;10.40;99.90;;;;;;10384046;28;20252;-82
2021/12/04 14:05:59;;;;;;;1.97;1.90;;;10.40;99.90;;;;;;10374483;28;20603;-82
2021/12/04 14:11:03;;;;;;;2.10;2.00;;;10.30;99.90;;;;;;10366004;28;20226;-81
2021/12/04 14:16:06;;;;;;;1.67;1.57;;;10.20;99.90;;;;;;10402862;28;20251;-82
2021/12/04 14:21:08;;;;;;;2.80;2.70;;;10.20;99.90;;;;;;10390896;28;20705;-82
2021/12/04 14:26:12;;;;;;;2.10;2.00;;;10.10;99.90;;;;;;10387877;28;20202;-82
2021/12/04 14:31:21;;;;;;;4.10;3.90;;;10.00;99.90;;;;;;10381905;28;20708;-82
2021/12/04 14:36:23;;;;;;;4.13;4.03;;;10.00;99.90;;;;;;10382481;28;20218;-82
2021/12/04 14:41:31;;;;;;;3.83;3.63;;;10.00;99.90;;;;;;10462131;22;20360;-78
2021/12/04 14:46:34;;;;;;;3.70;3.60;;;9.90;99.90;;;;;;10442038;28;20194;-77
2021/12/04 14:51:36;;;;;;;3.80;3.60;;;9.90;99.90;;;;;;10449166;28;20251;-78
2021/12/04 14:56:40;;;;;;;3.53;2.57;;;9.90;99.90;;;;;;10446781;28;20712;-78
2021/12/04 15:01:42;;;;;;;3.40;3.30;;;9.90;99.90;;;;;;10457843;28;20232;-77
2021/12/04 15:06:44;;;;;;;3.33;3.23;;;9.90;99.90;;;;;;10451349;28;20645;-78
2021/12/04 15:11:51;;;;;;;3.23;3.13;;;9.80;99.90;;;;;;10459012;28;20643;-78
2021/12/04 15:16:58;;;;;;;2.50;2.30;;;9.80;99.90;;;;;;10435040;28;20727;-78
2021/12/04 15:22:02;;;;;;;3.17;3.07;;;9.80;99.90;;;;;;10457042;28;20737;-78
2021/12/04 15:27:10;;;;;;;3.10;3.00;;;9.80;99.90;;;;;;10428052;28;20194;-77
2021/12/04 15:32:14;;;;;;;3.80;3.60;;;9.80;99.90;;;;;;10421649;28;20190;-78
2021/12/04 15:37:27;;;;;;;3.80;3.60;;;9.80;99.90;;;;;;10426588;28;20224;-78
2021/12/04 15:42:50;;;;;;;2.30;2.20;;;9.80;99.90;;;;;;10441799;28;20233;-78
2021/12/04 15:48:18;;;;;;;3.17;2.97;;;9.80;99.90;;;;;;10442327;28;20733;-78
2021/12/04 15:53:21;;;;;;;2.63;2.53;;;9.80;99.90;;;;;;10450004;28;20216;-79
2021/12/04 15:58:26;;;;;;;2.60;2.50;;;9.80;99.90;;;;;;10451162;28;20239;-78
2021/12/04 16:03:28;;;;;;;2.10;2.00;;;9.80;99.90;;;;;;10437157;28;20563;-78
2021/12/04 16:08:32;;;;;;;2.70;2.60;;;9.90;99.90;;;;;;10419270;28;20222;-78
2021/12/04 16:13:36;;;;;;;2.60;2.50;;;9.80;99.90;;;;;;10458337;28;20776;-78
2021/12/04 16:18:39;;;;;;;3.83;3.60;;;9.90;99.90;;;;;;10451539;28;20221;-77
2021/12/04 16:23:42;;;;;;;5.67;4.10;;;9.80;99.90;;;;;;10451932;28;20212;-78
2021/12/04 16:29:01;;;;;;;1.80;1.70;;;9.80;99.90;;;;;;10430204;28;20771;-78
2021/12/04 16:35:04;;;;;;;2.33;2.10;;;9.90;99.90;;;;;;10456633;28;20239;-78
2021/12/04 16:39:28;;;;;;;2.67;2.57;;;9.90;99.90;;;;;;10441463;28;20224;-78
2021/12/04 16:44:32;;;;;;;4.10;3.90;;;9.80;99.90;;;;;;10424880;28;20288;-78
2021/12/04 16:49:37;;;;;;;2.40;2.30;;;9.80;99.90;;;;;;10443215;28;20761;-78
2021/12/04 17:00:14;;;;;;;4.73;4.43;;;9.70;99.90;;;;;;10376263;28;20711;-79
2021/12/04 17:05:17;;;;;;;2.77;2.57;;;9.70;99.90;;;;;;10447043;28;20312;-78
2021/12/04 17:10:19;;;;;;;3.87;3.67;;;9.60;99.90;;;;;;10440685;28;20227;-78
2021/12/04 17:15:22;;;;;;;3.10;2.90;;;9.60;99.90;;;;;;10435170;28;20252;-78
2021/12/04 17:20:27;;;;;;;3.10;2.90;;;9.70;99.90;;;;;;10437345;28;20730;-79
2021/12/04 17:25:29;;;;;;;2.77;2.57;;;9.70;99.90;;;;;;10458332;28;20201;-78
2021/12/04 17:30:32;;;;;;;3.70;3.50;;;9.70;99.90;;;;;;10446587;28;20252;-79
2021/12/04 17:35:35;;;;;;;3.30;3.10;;;9.80;99.90;;;;;;10452686;28;20229;-78
2021/12/04 17:40:40;;;;;;;3.80;3.60;;;9.80;99.90;;;;;;10451988;28;20240;-78
2021/12/04 17:45:43;;;;;;;3.27;3.07;;;9.80;99.90;;;;;;10434770;28;20669;-79
2021/12/04 17:50:46;;;;;;;4.10;3.10;;;9.80;99.90;;;;;;10464319;28;20274;-79
2021/12/04 17:55:48;;;;;;;2.67;2.47;;;9.80;99.90;;;;;;10453844;28;20232;-78
2021/12/04 18:00:56;;;;;;;3.03;2.83;;;9.80;99.90;;;;;;10458438;28;20239;-78
2021/12/04 18:06:02;;;;;;;2.20;2.10;;;9.80;99.90;;;;;;10448817;28;20201;-78
2021/12/04 18:11:06;;;;;;;2.00;1.90;;;9.80;99.90;;;;;;10461202;28;20248;-77
2021/12/04 18:16:15;;;;;;;2.30;2.17;;;9.80;99.90;;;;;;10458714;28;20278;-78
2021/12/04 18:21:18;;;;;;;1.70;1.60;;;9.70;99.90;;;;;;10461362;28;20297;-78
2021/12/04 18:26:20;;;;;;;1.30;1.20;;;9.70;99.90;;;;;;10454425;28;20244;-79
2021/12/04 18:31:24;;;;;;;2.10;2.00;;;9.60;99.90;;;;;;10458756;28;20230;-79
2021/12/04 18:36:27;;;;;;;1.80;1.70;;;9.60;99.90;;;;;;10437022;28;20474;-78
2021/12/04 18:41:29;;;;;;;1.80;1.70;;;9.50;99.90;;;;;;10454992;28;20595;-77
2021/12/04 18:46:34;;;;;;;1.40;1.30;;;9.50;99.90;;;;;;10455548;28;20579;-77
2021/12/04 18:51:37;;;;;;;1.30;1.30;;;9.40;99.90;;;;;;10446959;28;20259;-78
2021/12/04 18:56:41;;;;;;;1.70;1.60;;;9.40;99.90;;;;;;10449319;28;20221;-78
2021/12/04 19:01:45;;;;;;;1.20;1.20;;;9.30;99.90;;;;;;10455002;28;20746;-78
2021/12/04 19:06:47;;;;;;;1.30;1.30;;;9.30;99.90;;;;;;10444864;28;20212;-78
2021/12/04 19:11:50;;;;;;;3.83;1.73;;;9.20;99.90;;;;;;10446604;28;20229;-78
2021/12/04 19:16:54;;;;;;;1.20;1.20;;;9.20;99.90;;;;;;10447110;28;20579;-77
2021/12/04 19:21:56;;;;;;;2.10;2.00;;;9.20;99.90;;;;;;10452826;28;20232;-78
2021/12/04 19:27:01;;;;;;;1.90;1.80;;;9.20;99.90;;;;;;10446821;28;20202;-77
2021/12/04 19:32:10;;;;;;;1.90;1.80;;;9.20;99.90;;;;;;10451797;28;20625;-78
2021/12/04 19:53:34;;;;;;;1.10;1.10;;;9.20;99.90;;;;;;10458208;28;20680;-79
2021/12/04 19:58:40;;;;;;;2.00;1.90;;;9.10;99.90;;;;;;10405652;28;20815;-79
2021/12/04 20:09:15;;;;;;;1.50;1.50;;;8.90;99.90;;;;;;10446388;28;20232;-79
2021/12/04 20:14:18;;;;;;;2.00;1.90;;;8.80;99.90;;;;;;10454884;28;20217;-78
2021/12/04 20:19:21;;;;;;;2.47;2.37;;;8.80;99.90;;;;;;10456880;28;20246;-78
2021/12/04 20:24:31;;;;;;;1.90;1.80;;;8.80;99.90;;;;;;10451047;28;20214;-78
2021/12/04 20:29:48;;;;;;;1.87;1.77;;;8.80;99.90;;;;;;10460503;28;20229;-79
2021/12/04 20:40:41;;;;;;;2.23;2.13;;;8.70;99.90;;;;;;10416045;28;20245;-78
2021/12/04 21:07:22;;;;;;;2.17;1.97;;;8.50;99.90;;;;;;10448462;28;20188;-79
2021/12/04 21:49:42;;;;;;;4.13;2.53;;;8.10;99.90;;;;;;10425176;28;20220;-78
2021/12/04 21:54:47;;;;;;;3.23;2.23;;;8.10;99.90;;;;;;10454034;28;20246;-78
2021/12/04 22:10:42;;;;;;;2.93;2.43;;;8.00;99.90;;;;;;10456288;28;20225;-78
2021/12/04 22:16:28;;;;;;;3.30;1.90;;;8.00;99.90;;;;;;10453930;28;20586;-79
2021/12/04 22:59:04;;;;;;;3.90;2.47;;;7.70;99.90;;;;;;10460902;28;20619;-78
2021/12/04 23:04:34;;;;;;;3.33;2.77;;;7.70;99.90;;;;;;10460229;28;20216;-78
2021/12/04 23:15:08;;;;;;;4.50;2.67;;;7.80;99.90;;;;;;10461396;28;20217;-79
2021/12/04 23:36:17;;;;;;;3.10;2.17;;;7.80;99.90;;;;;;10458594;28;20304;-78
